Time;durP1;ratioP1;P1;durP2;ratioP2;P2;SDS_P1;SDS_P2;PMS_P1;PMS_P2;Temp;Humidity;BMP_temperature;BMP_pressure;BME280_temperature;BME280_humidity;BME280_pressure;Samples;Min_cycle;Max_cycle;Signal;HPM_P1;HPM_P2
2023/03/22 00:00:12;;;;;;;;;;;;;;;;;;5071906;28;19915;-48
2023/03/22 00:02:38;;;;;;;;;;;;;;;;;;5072946;28;19904;-50
2023/03/22 00:05:04;;;;;;;;;;;;;;;;;;5071359;28;19914;-47
2023/03/22 00:07:30;;;;;;;;;;;;;;;;;;5072301;28;19904;-47
2023/03/22 00:09:56;;;;;;;;;;;;;;;;;;5085550;28;19939;-46
2023/03/22 00:12:22;;;;;;;;;;;;;;;;;;5093188;28;19908;-47
2023/03/22 00:14:48;;;;;;;;;;;;;;;;;;5092229;28;20354;-48
2023/03/22 00:17:14;;;;;;;;;;;;;;;;;;5087487;28;20384;-47
2023/03/22 00:19:41;;;;;;;;;;;;;;;;;;5072560;28;19928;-47
2023/03/22 00:22:07;;;;;;;;;;;;;;;;;;5071194;28;19908;-48
2023/03/22 00:24:33;;;;;;;;;;;;;;;;;;5072451;28;19962;-47
2023/03/22 00:26:59;;;;;;;;;;;;;;;;;;5088680;28;19915;-47
2023/03/22 00:29:25;;;;;;;;;;;;;;;;;;5091751;28;19911;-47
2023/03/22 00:31:53;;;;;;;;;;;;;;;;;;5091600;28;19903;-47
2023/03/22 00:34:19;;;;;;;;;;;;;;;;;;5092609;28;20265;-47
2023/03/22 00:36:45;;;;;;;;;;;;;;;;;;5091990;28;20002;-48
2023/03/22 00:39:11;;;;;;;;;;;;;;;;;;5092496;28;20007;-47
2023/03/22 00:41:37;;;;;;;;;;;;;;;;;;5084499;28;19908;-47
2023/03/22 00:44:03;;;;;;;;;;;;;;;;;;5081151;28;19919;-48
2023/03/22 00:46:29;;;;;;;;;;;;;;;;;;5070345;28;19955;-49
2023/03/22 00:48:54;;;;;;;;;;;;;;;;;;5069686;28;20283;-48
2023/03/22 00:51:20;;;;;;;;;;;;;;;;;;5067762;28;19908;-47
2023/03/22 00:53:49;;;;;;;;;;;;;;;;;;5070359;28;19939;-48
2023/03/22 00:56:15;;;;;;;;;;;;;;;;;;5070019;28;20375;-49
2023/03/22 00:58:41;;;;;;;;;;;;;;;;;;5067955;28;19946;-47
2023/03/22 01:01:07;;;;;;;;;;;;;;;;;;5067538;28;19965;-46
2023/03/22 01:03:33;;;;;;;;;;;;;;;;;;5061863;28;19954;-47
2023/03/22 01:05:59;;;;;;;;;;;;;;;;;;5056519;28;19912;-47
2023/03/22 01:08:31;;;;;;;;;;;;;;;;;;5058049;28;19909;-47
2023/03/22 01:10:57;;;;;;;;;;;;;;;;;;5070714;28;19958;-46
2023/03/22 01:13:23;;;;;;;;;;;;;;;;;;5071747;28;20355;-47
2023/03/22 01:15:49;;;;;;;;;;;;;;;;;;5084621;28;19915;-46
2023/03/22 01:18:15;;;;;;;;;;;;;;;;;;5092132;28;19911;-47
2023/03/22 01:20:41;;;;;;;;;;;;;;;;;;5091628;28;19994;-47
2023/03/22 01:23:06;;;;;;;;;;;;;;;;;;5090843;28;20686;-46
2023/03/22 01:25:32;;;;;;;;;;;;;;;;;;5091576;28;19908;-48
2023/03/22 01:28:01;;;;;;;;;;;;;;;;;;5091324;28;19926;-48
2023/03/22 01:30:27;;;;;;;;;;;;;;;;;;5091318;28;20370;-46
2023/03/22 01:32:52;;;;;;;;;;;;;;;;;;5089233;28;19984;-48
2023/03/22 01:35:18;;;;;;;;;;;;;;;;;;5091662;28;19926;-47
2023/03/22 01:37:44;;;;;;;;;;;;;;;;;;5091977;28;19904;-47
2023/03/22 01:40:10;;;;;;;;;;;;;;;;;;5090519;28;19994;-48
2023/03/22 01:42:36;;;;;;;;;;;;;;;;;;5095849;28;19904;-47
2023/03/22 01:45:02;;;;;;;;;;;;;;;;;;5080165;28;20339;-48
2023/03/22 01:47:28;;;;;;;;;;;;;;;;;;5077933;28;19920;-47
2023/03/22 01:49:54;;;;;;;;;;;;;;;;;;5094439;28;20341;-47
2023/03/22 01:52:19;;;;;;;;;;;;;;;;;;5095698;28;19950;-46
2023/03/22 01:54:45;;;;;;;;;;;;;;;;;;5095167;28;19904;-48
2023/03/22 01:57:11;;;;;;;;;;;;;;;;;;5094465;28;20278;-46
2023/03/22 01:59:37;;;;;;;;;;;;;;;;;;5095322;28;20362;-47
2023/03/22 02:02:03;;;;;;;;;;;;;;;;;;5094003;28;19911;-48
2023/03/22 02:04:33;;;;;;;;;;;;;;;;;;5093391;28;19912;-47
2023/03/22 02:06:58;;;;;;;;;;;;;;;;;;5093918;28;19908;-48
2023/03/22 02:09:24;;;;;;;;;;;;;;;;;;5095036;28;20372;-46
2023/03/22 02:11:50;;;;;;;;;;;;;;;;;;5093988;28;19904;-47
2023/03/22 02:14:16;;;;;;;;;;;;;;;;;;5095295;28;19907;-47
2023/03/22 02:16:42;;;;;;;;;;;;;;;;;;5094251;28;20013;-47
2023/03/22 02:19:08;;;;;;;;;;;;;;;;;;5093467;28;20354;-48
2023/03/22 02:21:34;;;;;;;;;;;;;;;;;;5088650;28;19912;-48
2023/03/22 02:24:00;;;;;;;;;;;;;;;;;;5053171;28;19908;-47
2023/03/22 02:26:26;;;;;;;;;;;;;;;;;;5054063;28;19908;-48
2023/03/22 02:28:51;;;;;;;;;;;;;;;;;;5053848;28;19905;-46
2023/03/22 02:31:17;;;;;;;;;;;;;;;;;;5053763;28;19967;-48
2023/03/22 02:33:44;;;;;;;;;;;;;;;;;;5054131;28;19908;-47
2023/03/22 02:36:10;;;;;;;;;;;;;;;;;;5052488;28;19908;-48
2023/03/22 02:38:35;;;;;;;;;;;;;;;;;;5071378;28;19908;-47
2023/03/22 02:41:01;;;;;;;;;;;;;;;;;;5072902;28;19904;-46
2023/03/22 02:43:29;;;;;;;;;;;;;;;;;;5073396;28;19908;-47
2023/03/22 02:45:55;;;;;;;;;;;;;;;;;;5053176;28;19999;-47
2023/03/22 02:48:21;;;;;;;;;;;;;;;;;;5054009;28;20360;-48
2023/03/22 02:50:47;;;;;;;;;;;;;;;;;;5053280;28;19911;-47
2023/03/22 02:53:13;;;;;;;;;;;;;;;;;;5053187;28;19905;-47
2023/03/22 02:55:39;;;;;;;;;;;;;;;;;;5080798;28;19908;-46
2023/03/22 02:58:05;;;;;;;;;;;;;;;;;;5093707;28;20913;-47
2023/03/22 03:00:31;;;;;;;;;;;;;;;;;;5093827;28;19991;-46
2023/03/22 03:02:58;;;;;;;;;;;;;;;;;;5093486;28;19904;-47
2023/03/22 03:05:24;;;;;;;;;;;;;;;;;;5093937;28;19914;-48
2023/03/22 03:07:50;;;;;;;;;;;;;;;;;;5093017;28;19904;-47
2023/03/22 03:10:16;;;;;;;;;;;;;;;;;;5077084;28;19909;-46
2023/03/22 03:12:42;;;;;;;;;;;;;;;;;;5071725;28;19908;-50
2023/03/22 03:15:08;;;;;;;;;;;;;;;;;;5064971;28;19919;-46
2023/03/22 03:17:34;;;;;;;;;;;;;;;;;;5067146;28;20021;-47
2023/03/22 03:20:00;;;;;;;;;;;;;;;;;;5072557;28;19905;-48
2023/03/22 03:22:26;;;;;;;;;;;;;;;;;;5073720;28;19908;-47
2023/03/22 03:24:52;;;;;;;;;;;;;;;;;;5072468;28;19916;-47
2023/03/22 03:27:18;;;;;;;;;;;;;;;;;;5073174;28;19915;-47
2023/03/22 03:29:44;;;;;;;;;;;;;;;;;;5090560;28;20002;-48
2023/03/22 03:32:10;;;;;;;;;;;;;;;;;;5092640;28;19991;-49
2023/03/22 03:34:36;;;;;;;;;;;;;;;;;;5093566;28;19943;-49
2023/03/22 03:37:02;;;;;;;;;;;;;;;;;;5092252;28;19904;-50
2023/03/22 03:39:28;;;;;;;;;;;;;;;;;;5093574;28;19973;-51
2023/03/22 03:41:54;;;;;;;;;;;;;;;;;;5082883;28;19915;-49
2023/03/22 03:44:20;;;;;;;;;;;;;;;;;;5070414;28;19912;-48
2023/03/22 03:46:46;;;;;;;;;;;;;;;;;;5092176;28;19908;-48
2023/03/22 03:49:11;;;;;;;;;;;;;;;;;;5074377;28;19916;-47
2023/03/22 03:51:37;;;;;;;;;;;;;;;;;;5092766;28;19919;-48
2023/03/22 03:54:03;;;;;;;;;;;;;;;;;;5092493;28;19931;-48
2023/03/22 03:56:29;;;;;;;;;;;;;;;;;;5092497;28;19905;-49
2023/03/22 03:58:55;;;;;;;;;;;;;;;;;;5092546;28;19904;-48
2023/03/22 04:01:22;;;;;;;;;;;;;;;;;;5090213;28;19980;-46
2023/03/22 04:03:49;;;;;;;;;;;;;;;;;;5092270;28;20262;-49
2023/03/22 04:06:15;;;;;;;;;;;;;;;;;;5092283;28;20424;-47
2023/03/22 04:08:44;;;;;;;;;;;;;;;;;;5093094;28;19943;-48
2023/03/22 04:11:10;;;;;;;;;;;;;;;;;;5091908;28;19955;-50
2023/03/22 04:13:36;;;;;;;;;;;;;;;;;;5092692;28;19997;-49
2023/03/22 04:16:01;;;;;;;;;;;;;;;;;;5073452;28;20007;-47
2023/03/22 04:18:28;;;;;;;;;;;;;;;;;;5061538;28;19909;-50
2023/03/22 04:20:56;;;;;;;;;;;;;;;;;;5051376;28;19936;-50
2023/03/22 04:23:22;;;;;;;;;;;;;;;;;;5057925;28;20422;-46
2023/03/22 04:25:49;;;;;;;;;;;;;;;;;;5071518;28;20282;-47
2023/03/22 04:28:14;;;;;;;;;;;;;;;;;;5072279;28;19911;-45
2023/03/22 04:30:44;;;;;;;;;;;;;;;;;;5072118;28;20367;-47
2023/03/22 04:33:11;;;;;;;;;;;;;;;;;;5072842;28;20964;-46
2023/03/22 04:35:36;;;;;;;;;;;;;;;;;;5092041;28;20331;-46
2023/03/22 04:38:02;;;;;;;;;;;;;;;;;;5091737;28;19904;-47
2023/03/22 04:40:34;;;;;;;;;;;;;;;;;;5091909;28;19908;-46
2023/03/22 04:43:02;;;;;;;;;;;;;;;;;;5091490;28;19904;-49
2023/03/22 04:45:31;;;;;;;;;;;;;;;;;;5074181;28;19909;-47
2023/03/22 04:47:57;;;;;;;;;;;;;;;;;;5071091;28;19916;-46
2023/03/22 04:50:22;;;;;;;;;;;;;;;;;;5078044;28;19915;-48
2023/03/22 04:52:48;;;;;;;;;;;;;;;;;;5091771;28;19904;-48
2023/03/22 04:55:14;;;;;;;;;;;;;;;;;;5091881;28;19944;-49
2023/03/22 04:57:40;;;;;;;;;;;;;;;;;;5092287;28;19911;-47
2023/03/22 05:00:07;;;;;;;;;;;;;;;;;;5082024;28;19948;-46
2023/03/22 05:02:33;;;;;;;;;;;;;;;;;;5070734;28;19971;-46
2023/03/22 05:04:59;;;;;;;;;;;;;;;;;;5069480;28;20398;-48
2023/03/22 05:07:26;;;;;;;;;;;;;;;;;;5070367;28;19912;-48
2023/03/22 05:09:51;;;;;;;;;;;;;;;;;;5069214;28;20282;-47
2023/03/22 05:12:17;;;;;;;;;;;;;;;;;;5070821;28;19988;-48
2023/03/22 05:14:43;;;;;;;;;;;;;;;;;;5069769;28;19916;-46
2023/03/22 05:17:10;;;;;;;;;;;;;;;;;;5072954;28;19987;-47
2023/03/22 05:19:35;;;;;;;;;;;;;;;;;;5072417;28;19950;-47
2023/03/22 05:22:01;;;;;;;;;;;;;;;;;;5072882;28;19908;-48
2023/03/22 05:24:27;;;;;;;;;;;;;;;;;;5070972;28;19916;-46
2023/03/22 05:26:53;;;;;;;;;;;;;;;;;;5070204;28;20349;-47
2023/03/22 05:29:20;;;;;;;;;;;;;;;;;;5072417;28;19954;-46
2023/03/22 05:31:46;;;;;;;;;;;;;;;;;;5071627;28;19915;-49
2023/03/22 05:34:12;;;;;;;;;;;;;;;;;;5072381;28;19912;-47
2023/03/22 05:36:38;;;;;;;;;;;;;;;;;;5074079;28;19987;-46
2023/03/22 05:39:04;;;;;;;;;;;;;;;;;;5073069;28;19999;-48
2023/03/22 05:41:33;;;;;;;;;;;;;;;;;;5073687;28;20318;-46
2023/03/22 05:43:59;;;;;;;;;;;;;;;;;;5071624;28;19908;-47
2023/03/22 05:46:24;;;;;;;;;;;;;;;;;;5073328;28;19938;-47
2023/03/22 05:48:50;;;;;;;;;;;;;;;;;;5072190;28;19924;-46
2023/03/22 05:51:16;;;;;;;;;;;;;;;;;;5073789;28;19978;-48
2023/03/22 05:53:42;;;;;;;;;;;;;;;;;;5074387;28;19908;-48
2023/03/22 05:56:08;;;;;;;;;;;;;;;;;;5074067;28;19939;-47
2023/03/22 05:58:34;;;;;;;;;;;;;;;;;;5079246;28;19916;-48
2023/03/22 06:01:02;;;;;;;;;;;;;;;;;;5063534;28;19904;-48
2023/03/22 06:03:28;;;;;;;;;;;;;;;;;;5075376;28;20020;-48
2023/03/22 06:05:53;;;;;;;;;;;;;;;;;;5073830;28;19912;-50
2023/03/22 06:08:19;;;;;;;;;;;;;;;;;;5074867;28;19905;-49
2023/03/22 06:10:45;;;;;;;;;;;;;;;;;;5069673;28;19908;-48
2023/03/22 06:13:11;;;;;;;;;;;;;;;;;;5074456;28;20378;-50
2023/03/22 06:15:37;;;;;;;;;;;;;;;;;;5090082;28;19944;-48
2023/03/22 06:18:03;;;;;;;;;;;;;;;;;;5094307;28;19911;-48
2023/03/22 06:20:29;;;;;;;;;;;;;;;;;;5094404;28;19911;-47
2023/03/22 06:22:55;;;;;;;;;;;;;;;;;;5093708;28;20405;-49
2023/03/22 06:25:20;;;;;;;;;;;;;;;;;;5094771;28;19908;-47
2023/03/22 06:27:46;;;;;;;;;;;;;;;;;;5091798;28;20273;-50
2023/03/22 06:30:12;;;;;;;;;;;;;;;;;;5073504;28;19904;-46
2023/03/22 06:32:38;;;;;;;;;;;;;;;;;;5068605;28;19938;-46
2023/03/22 06:35:04;;;;;;;;;;;;;;;;;;5071473;28;20492;-45
2023/03/22 06:37:30;;;;;;;;;;;;;;;;;;5059272;28;19954;-47
2023/03/22 06:39:56;;;;;;;;;;;;;;;;;;5069840;28;20278;-47
2023/03/22 06:42:22;;;;;;;;;;;;;;;;;;5084079;28;19905;-47
2023/03/22 06:44:48;;;;;;;;;;;;;;;;;;5061576;28;19912;-47
2023/03/22 06:47:14;;;;;;;;;;;;;;;;;;5053467;28;19917;-46
2023/03/22 06:49:40;;;;;;;;;;;;;;;;;;5078335;28;19912;-48
2023/03/22 06:52:05;;;;;;;;;;;;;;;;;;5093105;28;19904;-46
2023/03/22 06:54:31;;;;;;;;;;;;;;;;;;5094740;28;19953;-48
2023/03/22 06:56:57;;;;;;;;;;;;;;;;;;5084385;28;19961;-47
2023/03/22 06:59:23;;;;;;;;;;;;;;;;;;5064878;28;19955;-46
2023/03/22 07:01:49;;;;;;;;;;;;;;;;;;5072273;28;19986;-47
2023/03/22 07:04:15;;;;;;;;;;;;;;;;;;5060160;28;20267;-47
2023/03/22 07:06:41;;;;;;;;;;;;;;;;;;5063631;28;19904;-47
2023/03/22 07:09:07;;;;;;;;;;;;;;;;;;5072673;28;20048;-47
2023/03/22 07:11:32;;;;;;;;;;;;;;;;;;5072926;28;19994;-47
2023/03/22 07:13:58;;;;;;;;;;;;;;;;;;5073201;28;19908;-47
2023/03/22 07:16:24;;;;;;;;;;;;;;;;;;5067193;28;19912;-48
2023/03/22 07:18:50;;;;;;;;;;;;;;;;;;5072580;28;19957;-47
2023/03/22 07:21:16;;;;;;;;;;;;;;;;;;5071652;28;19905;-47
2023/03/22 07:23:42;;;;;;;;;;;;;;;;;;5073538;28;19912;-47
2023/03/22 07:26:08;;;;;;;;;;;;;;;;;;5071900;28;19957;-46
2023/03/22 07:28:34;;;;;;;;;;;;;;;;;;5073473;28;20294;-46
2023/03/22 07:31:00;;;;;;;;;;;;;;;;;;5071854;28;19912;-48
2023/03/22 07:33:26;;;;;;;;;;;;;;;;;;5073137;28;19904;-48
2023/03/22 07:35:52;;;;;;;;;;;;;;;;;;5071882;28;19911;-47
2023/03/22 07:38:18;;;;;;;;;;;;;;;;;;5072030;28;19905;-47
2023/03/22 07:40:43;;;;;;;;;;;;;;;;;;5072545;28;19912;-46
2023/03/22 07:43:11;;;;;;;;;;;;;;;;;;5076866;28;19908;-47
2023/03/22 07:45:37;;;;;;;;;;;;;;;;;;5072381;28;20366;-47
2023/03/22 07:48:03;;;;;;;;;;;;;;;;;;5071843;28;19920;-47
2023/03/22 07:50:29;;;;;;;;;;;;;;;;;;5054209;28;19944;-48
2023/03/22 07:52:55;;;;;;;;;;;;;;;;;;5070349;28;19991;-48
2023/03/22 07:55:21;;;;;;;;;;;;;;;;;;5071625;28;20003;-48
2023/03/22 07:57:47;;;;;;;;;;;;;;;;;;5072303;28;19908;-47
2023/03/22 08:00:14;;;;;;;;;;;;;;;;;;5071928;28;19966;-47
2023/03/22 08:02:40;;;;;;;;;;;;;;;;;;5072081;28;19990;-47
2023/03/22 08:05:06;;;;;;;;;;;;;;;;;;5071480;28;20087;-48
2023/03/22 08:07:32;;;;;;;;;;;;;;;;;;5063298;28;19909;-48
2023/03/22 08:09:58;;;;;;;;;;;;;;;;;;5077368;28;19981;-47
2023/03/22 08:12:24;;;;;;;;;;;;;;;;;;5071560;28;19954;-47
2023/03/22 08:14:51;;;;;;;;;;;;;;;;;;5077088;28;20319;-49
2023/03/22 08:17:17;;;;;;;;;;;;;;;;;;5068533;28;19912;-50
2023/03/22 08:19:44;;;;;;;;;;;;;;;;;;5070464;28;19912;-46
2023/03/22 08:22:10;;;;;;;;;;;;;;;;;;5071087;28;19916;-47
2023/03/22 08:24:36;;;;;;;;;;;;;;;;;;5070420;28;19919;-46
2023/03/22 08:27:02;;;;;;;;;;;;;;;;;;5068564;28;19904;-46
2023/03/22 08:29:28;;;;;;;;;;;;;;;;;;5063873;28;20002;-46
2023/03/22 08:31:54;;;;;;;;;;;;;;;;;;5061551;28;19917;-46
2023/03/22 08:34:20;;;;;;;;;;;;;;;;;;5070252;28;19908;-49
2023/03/22 08:36:46;;;;;;;;;;;;;;;;;;5066836;28;19908;-49
2023/03/22 08:39:12;;;;;;;;;;;;;;;;;;5071238;28;19954;-47
2023/03/22 08:41:38;;;;;;;;;;;;;;;;;;5077879;28;20003;-47
2023/03/22 08:44:04;;;;;;;;;;;;;;;;;;5068290;28;20375;-47
2023/03/22 08:46:30;;;;;;;;;;;;;;;;;;5059189;28;19908;-46
2023/03/22 08:48:59;;;;;;;;;;;;;;;;;;5059136;28;20263;-47
2023/03/22 08:51:25;;;;;;;;;;;;;;;;;;5068082;28;19931;-46
2023/03/22 08:53:51;;;;;;;;;;;;;;;;;;5051183;28;19909;-47
2023/03/22 08:56:17;;;;;;;;;;;;;;;;;;5066869;28;19922;-47
2023/03/22 08:58:45;;;;;;;;;;;;;;;;;;5066438;28;20633;-48
2023/03/22 09:01:11;;;;;;;;;;;;;;;;;;5067941;28;19961;-46
2023/03/22 09:03:37;;;;;;;;;;;;;;;;;;5060113;28;19916;-46
2023/03/22 09:06:03;;;;;;;;;;;;;;;;;;5067117;28;20158;-47
2023/03/22 09:08:29;;;;;;;;;;;;;;;;;;5070443;28;19912;-47
2023/03/22 09:10:55;;;;;;;;;;;;;;;;;;5058530;28;19953;-46
2023/03/22 09:13:21;;;;;;;;;;;;;;;;;;5064812;28;20394;-46
2023/03/22 09:15:47;;;;;;;;;;;;;;;;;;5057389;28;19913;-48
2023/03/22 09:18:12;;;;;;;;;;;;;;;;;;5066400;28;19908;-46
2023/03/22 09:20:38;;;;;;;;;;;;;;;;;;5039402;28;19965;-46
2023/03/22 09:23:04;;;;;;;;;;;;;;;;;;5059541;28;19912;-46
2023/03/22 09:25:30;;;;;;;;;;;;;;;;;;5055511;28;19909;-46
2023/03/22 09:27:56;;;;;;;;;;;;;;;;;;5061080;28;19948;-46
2023/03/22 09:30:22;;;;;;;;;;;;;;;;;;5063949;28;20359;-46
2023/03/22 09:32:48;;;;;;;;;;;;;;;;;;5051888;28;19908;-48
2023/03/22 09:35:14;;;;;;;;;;;;;;;;;;5061538;28;19916;-46
2023/03/22 09:37:40;;;;;;;;;;;;;;;;;;5055818;28;19909;-45
2023/03/22 09:40:06;;;;;;;;;;;;;;;;;;5054611;28;20114;-47
2023/03/22 09:42:32;;;;;;;;;;;;;;;;;;5063982;28;19944;-45
2023/03/22 09:44:58;;;;;;;;;;;;;;;;;;5068671;28;20362;-46
2023/03/22 09:47:24;;;;;;;;;;;;;;;;;;5063564;28;20006;-45
2023/03/22 09:49:50;;;;;;;;;;;;;;;;;;5064478;28;19961;-46
2023/03/22 09:52:16;;;;;;;;;;;;;;;;;;5069862;28;19908;-47
2023/03/22 09:54:42;;;;;;;;;;;;;;;;;;5058936;28;19916;-46
2023/03/22 09:57:09;;;;;;;;;;;;;;;;;;5065289;28;20034;-45
2023/03/22 09:59:35;;;;;;;;;;;;;;;;;;5065686;28;20023;-46
2023/03/22 10:02:01;;;;;;;;;;;;;;;;;;5068142;28;19930;-47
2023/03/22 10:04:27;;;;;;;;;;;;;;;;;;5068121;28;19962;-46
2023/03/22 10:06:53;;;;;;;;;;;;;;;;;;5061387;28;20417;-47
2023/03/22 10:09:19;;;;;;;;;;;;;;;;;;5065079;28;20410;-48
2023/03/22 10:11:45;;;;;;;;;;;;;;;;;;5057831;28;19916;-47
2023/03/22 10:14:10;;;;;;;;;;;;;;;;;;5071824;28;19912;-46
2023/03/22 10:16:36;;;;;;;;;;;;;;;;;;5073010;28;19946;-46
2023/03/22 10:19:02;;;;;;;;;;;;;;;;;;5069569;28;19908;-47
2023/03/22 10:21:28;;;;;;;;;;;;;;;;;;5057971;28;19908;-46
2023/03/22 10:23:54;;;;;;;;;;;;;;;;;;5066736;28;20652;-46
2023/03/22 10:26:20;;;;;;;;;;;;;;;;;;5068691;28;19919;-47
2023/03/22 10:28:46;;;;;;;;;;;;;;;;;;5066272;28;19931;-49
2023/03/22 10:31:12;;;;;;;;;;;;;;;;;;5070785;28;19913;-49
2023/03/22 10:33:38;;;;;;;;;;;;;;;;;;5071817;28;19914;-46
2023/03/22 10:36:04;;;;;;;;;;;;;;;;;;5064645;28;19916;-48
2023/03/22 10:38:30;;;;;;;;;;;;;;;;;;5064684;28;19908;-47
2023/03/22 10:40:56;;;;;;;;;;;;;;;;;;5055486;28;19913;-47
2023/03/22 10:43:22;;;;;;;;;;;;;;;;;;5065298;28;19989;-46
2023/03/22 10:45:47;;;;;;;;;;;;;;;;;;5064765;28;19916;-48
2023/03/22 10:48:13;;;;;;;;;;;;;;;;;;5067166;28;19927;-46
2023/03/22 10:50:39;;;;;;;;;;;;;;;;;;5061797;28;19909;-47
2023/03/22 10:53:05;;;;;;;;;;;;;;;;;;5069030;28;19974;-46
2023/03/22 10:55:31;;;;;;;;;;;;;;;;;;5061515;28;20046;-46
2023/03/22 10:57:57;;;;;;;;;;;;;;;;;;5070471;28;19908;-47
2023/03/22 11:00:24;;;;;;;;;;;;;;;;;;5065686;28;20264;-46
2023/03/22 11:02:50;;;;;;;;;;;;;;;;;;5066270;28;20309;-47
2023/03/22 11:05:15;;;;;;;;;;;;;;;;;;5067599;28;19925;-47
2023/03/22 11:07:41;;;;;;;;;;;;;;;;;;5057366;28;19920;-46
2023/03/22 11:10:07;;;;;;;;;;;;;;;;;;5070068;28;19908;-46
2023/03/22 11:12:33;;;;;;;;;;;;;;;;;;5073016;28;19918;-47
2023/03/22 11:14:59;;;;;;;;;;;;;;;;;;5070871;28;19954;-47
2023/03/22 11:17:25;;;;;;;;;;;;;;;;;;5062478;28;19947;-46
2023/03/22 11:19:51;;;;;;;;;;;;;;;;;;5056094;28;19991;-47
2023/03/22 11:22:17;;;;;;;;;;;;;;;;;;5057654;28;19970;-47
2023/03/22 11:24:42;;;;;;;;;;;;;;;;;;5068505;28;19912;-46
2023/03/22 11:27:08;;;;;;;;;;;;;;;;;;5068409;28;20455;-47
2023/03/22 11:29:34;;;;;;;;;;;;;;;;;;5072960;28;19904;-46
2023/03/22 11:32:00;;;;;;;;;;;;;;;;;;5071443;28;19999;-47
2023/03/22 11:34:26;;;;;;;;;;;;;;;;;;5072805;28;19908;-48
2023/03/22 11:36:58;;;;;;;;;;;;;;;;;;5071009;28;20003;-46
2023/03/22 11:39:24;;;;;;;;;;;;;;;;;;5073094;28;19939;-47
2023/03/22 11:41:50;;;;;;;;;;;;;;;;;;5079641;28;19908;-48
2023/03/22 11:44:16;;;;;;;;;;;;;;;;;;5068700;28;19923;-46
2023/03/22 11:46:42;;;;;;;;;;;;;;;;;;5072293;28;19946;-47
2023/03/22 11:49:08;;;;;;;;;;;;;;;;;;5071548;28;19920;-47
2023/03/22 11:51:34;;;;;;;;;;;;;;;;;;5072195;28;19970;-47
2023/03/22 11:54:01;;;;;;;;;;;;;;;;;;5062274;28;19904;-46
2023/03/22 11:56:26;;;;;;;;;;;;;;;;;;5072232;28;20365;-46
2023/03/22 11:58:52;;;;;;;;;;;;;;;;;;5071896;28;19908;-46
2023/03/22 12:01:18;;;;;;;;;;;;;;;;;;5071998;28;19908;-48
2023/03/22 12:03:44;;;;;;;;;;;;;;;;;;5072392;28;19920;-46
2023/03/22 12:06:10;;;;;;;;;;;;;;;;;;5071139;28;19920;-47
2023/03/22 12:08:36;;;;;;;;;;;;;;;;;;5072372;28;19915;-46
2023/03/22 12:11:02;;;;;;;;;;;;;;;;;;5067530;28;19958;-48
2023/03/22 12:13:28;;;;;;;;;;;;;;;;;;5072362;28;19946;-47
2023/03/22 12:15:54;;;;;;;;;;;;;;;;;;5070928;28;19905;-47
2023/03/22 12:18:20;;;;;;;;;;;;;;;;;;5072440;28;20003;-47
2023/03/22 12:20:46;;;;;;;;;;;;;;;;;;5071781;28;19959;-48
2023/03/22 12:23:12;;;;;;;;;;;;;;;;;;5070884;28;19943;-48
2023/03/22 12:25:38;;;;;;;;;;;;;;;;;;5070176;28;19966;-44
2023/03/22 12:28:05;;;;;;;;;;;;;;;;;;5068715;28;20309;-47
2023/03/22 12:30:31;;;;;;;;;;;;;;;;;;5057146;28;20027;-47
2023/03/22 12:32:57;;;;;;;;;;;;;;;;;;5062282;28;19928;-48
2023/03/22 12:35:23;;;;;;;;;;;;;;;;;;5067944;28;20006;-46
2023/03/22 12:37:49;;;;;;;;;;;;;;;;;;5071766;28;20347;-48
2023/03/22 12:40:14;;;;;;;;;;;;;;;;;;5071174;28;19912;-47
2023/03/22 12:42:40;;;;;;;;;;;;;;;;;;5071557;28;20273;-48
2023/03/22 12:45:06;;;;;;;;;;;;;;;;;;5059317;28;19996;-47
2023/03/22 12:47:32;;;;;;;;;;;;;;;;;;5062302;28;20007;-46
2023/03/22 12:49:58;;;;;;;;;;;;;;;;;;5070785;28;19905;-47
2023/03/22 12:52:24;;;;;;;;;;;;;;;;;;5067463;28;20282;-47
2023/03/22 12:54:50;;;;;;;;;;;;;;;;;;5058795;28;19954;-49
2023/03/22 12:57:16;;;;;;;;;;;;;;;;;;5071529;28;19913;-47
2023/03/22 12:59:41;;;;;;;;;;;;;;;;;;5072015;28;19904;-46
2023/03/22 13:02:07;;;;;;;;;;;;;;;;;;5067318;28;20350;-47
2023/03/22 13:04:33;;;;;;;;;;;;;;;;;;5061016;28;19920;-47
2023/03/22 13:06:59;;;;;;;;;;;;;;;;;;5070359;28;20007;-46
2023/03/22 13:09:25;;;;;;;;;;;;;;;;;;5071685;28;19905;-46
2023/03/22 13:11:51;;;;;;;;;;;;;;;;;;5069936;28;19955;-47
2023/03/22 13:14:17;;;;;;;;;;;;;;;;;;5071596;28;20361;-46
2023/03/22 13:16:43;;;;;;;;;;;;;;;;;;5070983;28;19916;-46
2023/03/22 13:19:08;;;;;;;;;;;;;;;;;;5070317;28;19904;-47
2023/03/22 13:21:35;;;;;;;;;;;;;;;;;;5070918;28;19905;-47
2023/03/22 13:24:03;;;;;;;;;;;;;;;;;;5060325;28;19916;-46
2023/03/22 13:26:29;;;;;;;;;;;;;;;;;;5056434;28;20282;-46
2023/03/22 13:28:55;;;;;;;;;;;;;;;;;;5070527;28;19904;-48
2023/03/22 13:31:21;;;;;;;;;;;;;;;;;;5070980;28;19987;-47
2023/03/22 13:33:46;;;;;;;;;;;;;;;;;;5070934;28;19912;-47
2023/03/22 13:36:12;;;;;;;;;;;;;;;;;;5054614;28;19905;-47
2023/03/22 13:38:38;;;;;;;;;;;;;;;;;;5074025;28;19908;-47
2023/03/22 13:41:04;;;;;;;;;;;;;;;;;;5075654;28;19908;-48
2023/03/22 13:43:30;;;;;;;;;;;;;;;;;;5079977;28;19920;-47
2023/03/22 13:45:56;;;;;;;;;;;;;;;;;;5070127;28;19915;-46
2023/03/22 13:48:22;;;;;;;;;;;;;;;;;;5074347;28;19920;-47
2023/03/22 13:50:48;;;;;;;;;;;;;;;;;;5074218;28;20323;-47
2023/03/22 13:53:14;;;;;;;;;;;;;;;;;;5070783;28;19916;-46
2023/03/22 13:55:41;;;;;;;;;;;;;;;;;;5074180;28;20375;-46
2023/03/22 13:58:06;;;;;;;;;;;;;;;;;;5074048;28;19916;-46
2023/03/22 14:00:33;;;;;;;;;;;;;;;;;;5074498;28;20313;-46
2023/03/22 14:02:58;;;;;;;;;;;;;;;;;;5074025;28;19958;-47
2023/03/22 14:05:25;;;;;;;;;;;;;;;;;;5074469;28;19912;-46
2023/03/22 14:07:51;;;;;;;;;;;;;;;;;;5073857;28;20359;-46
2023/03/22 14:10:17;;;;;;;;;;;;;;;;;;5066561;28;19909;-47
2023/03/22 14:12:42;;;;;;;;;;;;;;;;;;5073626;28;20328;-46
2023/03/22 14:15:08;;;;;;;;;;;;;;;;;;5073459;28;19970;-46
2023/03/22 14:17:34;;;;;;;;;;;;;;;;;;5074626;28;19904;-47
2023/03/22 14:20:00;;;;;;;;;;;;;;;;;;5073280;28;19923;-46
2023/03/22 14:22:27;;;;;;;;;;;;;;;;;;5074313;28;19912;-46
2023/03/22 14:24:53;;;;;;;;;;;;;;;;;;5072760;28;19989;-47
2023/03/22 14:27:20;;;;;;;;;;;;;;;;;;5070304;28;19908;-47
2023/03/22 14:29:46;;;;;;;;;;;;;;;;;;5074403;28;20339;-47
2023/03/22 14:32:11;;;;;;;;;;;;;;;;;;5072807;28;19915;-46
2023/03/22 14:34:38;;;;;;;;;;;;;;;;;;5074407;28;19987;-47
2023/03/22 14:37:04;;;;;;;;;;;;;;;;;;5073031;28;19950;-46
2023/03/22 14:39:30;;;;;;;;;;;;;;;;;;5073978;28;20373;-47
2023/03/22 14:41:56;;;;;;;;;;;;;;;;;;5080589;28;19904;-49
2023/03/22 14:44:22;;;;;;;;;;;;;;;;;;5072991;28;19960;-47
2023/03/22 14:46:48;;;;;;;;;;;;;;;;;;5073224;28;19955;-47
2023/03/22 14:49:14;;;;;;;;;;;;;;;;;;5072207;28;20338;-47
2023/03/22 14:51:39;;;;;;;;;;;;;;;;;;5073429;28;19904;-47
2023/03/22 14:54:10;;;;;;;;;;;;;;;;;;5070800;28;19908;-46
2023/03/22 14:56:38;;;;;;;;;;;;;;;;;;5059721;28;19952;-46
2023/03/22 14:59:04;;;;;;;;;;;;;;;;;;5062629;28;19916;-47
2023/03/22 15:01:29;;;;;;;;;;;;;;;;;;5067587;28;19908;-46
2023/03/22 15:03:56;;;;;;;;;;;;;;;;;;5054275;28;19920;-47
2023/03/22 15:06:22;;;;;;;;;;;;;;;;;;5057741;28;20378;-48
2023/03/22 15:08:48;;;;;;;;;;;;;;;;;;5073099;28;19908;-46
2023/03/22 15:11:14;;;;;;;;;;;;;;;;;;5072521;28;19912;-46
2023/03/22 15:13:40;;;;;;;;;;;;;;;;;;5073338;28;19947;-46
2023/03/22 15:16:05;;;;;;;;;;;;;;;;;;5072304;28;19912;-46
2023/03/22 15:18:31;;;;;;;;;;;;;;;;;;5072647;28;19904;-46
2023/03/22 15:20:57;;;;;;;;;;;;;;;;;;5072329;28;20377;-46
2023/03/22 15:23:23;;;;;;;;;;;;;;;;;;5065176;28;20579;-46
2023/03/22 15:25:49;;;;;;;;;;;;;;;;;;5068776;28;19908;-46
2023/03/22 15:28:15;;;;;;;;;;;;;;;;;;5072692;28;19911;-46
2023/03/22 15:30:41;;;;;;;;;;;;;;;;;;5072971;28;20244;-46
2023/03/22 15:33:07;;;;;;;;;;;;;;;;;;5072102;28;19912;-46
2023/03/22 15:35:33;;;;;;;;;;;;;;;;;;5072093;28;19908;-46
2023/03/22 15:38:02;;;;;;;;;;;;;;;;;;5055716;28;19909;-46
2023/03/22 15:40:28;;;;;;;;;;;;;;;;;;5072832;28;19911;-46
2023/03/22 15:42:53;;;;;;;;;;;;;;;;;;5071781;28;19917;-47
2023/03/22 15:45:20;;;;;;;;;;;;;;;;;;5072521;28;19999;-47
2023/03/22 15:47:45;;;;;;;;;;;;;;;;;;5072493;28;19916;-46
2023/03/22 15:50:11;;;;;;;;;;;;;;;;;;5071774;28;19916;-46
2023/03/22 15:52:37;;;;;;;;;;;;;;;;;;5071648;28;19904;-46
2023/03/22 15:55:03;;;;;;;;;;;;;;;;;;5071298;28;19916;-47
2023/03/22 15:57:29;;;;;;;;;;;;;;;;;;5064467;28;19909;-47
2023/03/22 15:59:55;;;;;;;;;;;;;;;;;;5056569;28;19911;-46
2023/03/22 16:02:21;;;;;;;;;;;;;;;;;;5072556;28;19910;-46
2023/03/22 16:04:50;;;;;;;;;;;;;;;;;;5060965;28;19916;-46
2023/03/22 16:07:16;;;;;;;;;;;;;;;;;;5072631;28;20002;-47
2023/03/22 16:09:42;;;;;;;;;;;;;;;;;;5056267;28;19948;-46
2023/03/22 16:12:08;;;;;;;;;;;;;;;;;;5069642;28;19901;-46
2023/03/22 16:14:34;;;;;;;;;;;;;;;;;;5065555;28;19943;-47
2023/03/22 16:17:00;;;;;;;;;;;;;;;;;;5060686;28;19950;-48
2023/03/22 16:19:26;;;;;;;;;;;;;;;;;;5072408;28;19912;-47
2023/03/22 16:21:52;;;;;;;;;;;;;;;;;;5070834;28;19950;-47
2023/03/22 16:24:17;;;;;;;;;;;;;;;;;;5071414;28;19916;-48
2023/03/22 16:26:43;;;;;;;;;;;;;;;;;;5070925;28;20363;-47
2023/03/22 16:29:09;;;;;;;;;;;;;;;;;;5071312;28;19927;-46
2023/03/22 16:31:35;;;;;;;;;;;;;;;;;;5071827;28;19942;-47
2023/03/22 16:34:01;;;;;;;;;;;;;;;;;;5071197;28;20350;-46
2023/03/22 16:36:27;;;;;;;;;;;;;;;;;;5071882;28;19905;-47